Adams, Illinois
Current Conditions -  °F | °C
As of 1:54 PM on Monday 22 Dec 2014 (Local Time) from KUIN Reporting Station
Haze Haze  
Wind Chill:   Ceiling: 200
Heat Index:   Visibility: 1.2mi
Dew Point:   Wind: 8mph
Humidity: 96%   Direction: 150°SSE
Pressure: 29.55"   Gusts: NA
Location:  39.8875°N, 91.0352°W
Report Text: KUIN 221954Z AUTO 15007KT 1 1/4SM BR OVC002 06/05 A2955 RMK AO2 SLP008 T00560050
Loading
Personal Weather Stations






























Interactive Weather Map New forecast layout! Learn more

10-Day Weather Forecast

Advertisements
Track Severe Weather on mobile